Time;durP1;ratioP1;P1;durP2;ratioP2;P2;SDS_P1;SDS_P2;PMS_P1;PMS_P2;Temp;Humidity;BMP_temperature;BMP_pressure;BME280_temperature;BME280_humidity;BME280_pressure;Samples;Min_cycle;Max_cycle;Signal;HPM_P1;HPM_P2
2022/09/06 00:00:27;;;;;;;6.50;5.85;;;;;;;17.21;100.00;100367.41;5084433;28;20093;-82
2022/09/06 00:02:52;;;;;;;7.03;6.07;;;;;;;17.27;100.00;100371.13;5057468;28;20454;-81
2022/09/06 00:05:18;;;;;;;6.78;5.75;;;;;;;17.31;100.00;100365.34;5066775;28;20564;-81
2022/09/06 00:07:43;;;;;;;8.63;6.45;;;;;;;17.34;100.00;100365.19;5071098;28;20449;-81
2022/09/06 00:10:09;;;;;;;6.85;6.13;;;;;;;17.33;100.00;100362.84;5083495;28;20072;-82
2022/09/06 00:12:36;;;;;;;6.55;5.72;;;;;;;17.40;100.00;100368.88;5084320;28;20119;-82
2022/09/06 00:15:02;;;;;;;6.70;5.80;;;;;;;17.39;100.00;100370.13;5070779;28;20048;-81
2022/09/06 00:17:28;;;;;;;6.95;6.20;;;;;;;17.39;100.00;100358.91;5070019;28;20040;-81
2022/09/06 00:19:53;;;;;;;7.47;6.30;;;;;;;17.28;100.00;100353.06;5081958;28;20028;-82
2022/09/06 00:22:19;;;;;;;6.55;5.95;;;;;;;17.32;100.00;100364.09;5068376;28;20561;-82
2022/09/06 00:24:45;;;;;;;7.95;6.70;;;;;;;17.26;100.00;100363.97;5084210;28;20040;-82
2022/09/06 00:27:10;;;;;;;6.30;5.72;;;;;;;17.23;100.00;100362.88;5086217;28;20110;-82
2022/09/06 00:29:36;;;;;;;6.10;5.50;;;;;;;17.16;100.00;100365.25;5068039;28;20036;-82
2022/09/06 00:32:01;;;;;;;7.00;5.30;;;;;;;17.05;100.00;100343.38;5087928;28;20072;-76
2022/09/06 00:34:27;;;;;;;5.90;5.30;;;;;;;17.02;100.00;100361.13;5089788;28;20043;-76
2022/09/06 00:36:53;;;;;;;5.60;5.10;;;;;;;16.97;100.00;100358.97;5071898;28;20039;-76
2022/09/06 00:39:19;;;;;;;7.28;5.25;;;;;;;16.96;100.00;100360.22;5070239;28;20043;-76
2022/09/06 00:41:44;;;;;;;7.50;4.90;;;;;;;16.97;100.00;100361.00;5090779;28;20047;-76
2022/09/06 00:44:10;;;;;;;5.88;5.28;;;;;;;16.95;100.00;100344.63;5091661;28;20077;-76
2022/09/06 00:46:36;;;;;;;5.72;5.22;;;;;;;16.92;100.00;100350.41;5098103;28;20118;-76
2022/09/06 00:49:05;;;;;;;7.75;5.47;;;;;;;16.79;100.00;100348.59;5069905;28;20032;-76
2022/09/06 00:51:32;;;;;;;6.68;6.00;;;;;;;16.62;100.00;100363.44;5066869;28;21137;-76
2022/09/06 00:54:02;;;;;;;6.40;5.80;;;;;;;16.66;100.00;100362.00;5069448;28;20047;-76
2022/09/06 00:56:28;;;;;;;6.75;6.10;;;;;;;16.69;100.00;100361.09;5085317;28;20478;-76
2022/09/06 00:58:53;;;;;;;7.78;6.82;;;;;;;16.68;100.00;100369.94;5072433;28;20089;-76
2022/09/06 01:03:44;;;;;;;8.27;7.27;;;;;;;16.69;100.00;100361.09;5046308;22;20505;-81
2022/09/06 01:06:23;;;;;;;7.75;6.65;;;;;;;16.74;100.00;100352.03;5031146;28;20041;-81
2022/09/06 01:09:10;;;;;;;8.02;7.05;;;;;;;16.73;100.00;100358.13;5019144;28;20128;-81
2022/09/06 01:11:47;;;;;;;7.40;6.70;;;;;;;16.74;100.00;100357.63;5042124;28;20037;-81
2022/09/06 01:14:47;;;;;;;7.28;6.68;;;;;;;16.76;100.00;100352.34;5052754;28;20481;-81
2022/09/06 01:17:13;;;;;;;8.38;6.47;;;;;;;16.77;100.00;100356.72;5048990;28;20041;-81
2022/09/06 01:20:00;;;;;;;7.82;6.70;;;;;;;16.79;100.00;100354.19;5050760;28;20501;-81
2022/09/06 01:23:10;;;;;;;6.80;6.20;;;;;;;16.82;100.00;100351.72;5047454;28;20040;-81
2022/09/06 01:25:47;;;;;;;7.05;6.35;;;;;;;16.61;100.00;100353.47;4970251;28;20532;-81
2022/09/06 01:28:25;;;;;;;7.15;6.10;;;;;;;16.68;100.00;100351.13;4968750;28;20082;-81
2022/09/06 01:30:56;;;;;;;6.50;5.90;;;;;;;16.75;100.00;100359.19;5019005;28;20413;-81
2022/09/06 01:33:45;;;;;;;6.93;6.30;;;;;;;16.68;100.00;100355.94;5031487;28;20041;-81
2022/09/06 01:36:14;;;;;;;6.32;5.75;;;;;;;16.69;100.00;100354.72;5035530;28;20053;-82
2022/09/06 01:38:39;;;;;;;6.93;6.22;;;;;;;16.71;100.00;100352.19;5037991;28;20052;-81
2022/09/06 01:41:05;;;;;;;7.05;6.03;;;;;;;16.57;100.00;100364.84;5016853;28;20045;-81
2022/09/06 01:43:34;;;;;;;6.50;5.90;;;;;;;16.72;100.00;100364.97;5049403;28;20563;-80
2022/09/06 01:46:53;;;;;;;6.57;5.95;;;;;;;16.75;100.00;100359.19;5033992;28;20068;-81
2022/09/06 01:49:54;;;;;;;6.07;5.47;;;;;;;16.83;100.00;100358.84;4988984;28;20514;-81
2022/09/06 01:53:00;;;;;;;6.32;5.72;;;;;;;16.87;100.00;100357.44;5012362;28;20049;-81
2022/09/06 01:55:30;;;;;;;8.20;6.90;;;;;;;16.85;100.00;100353.56;5033655;28;20059;-81
2022/09/06 01:58:21;;;;;;;9.18;6.95;;;;;;;16.78;100.00;100352.63;5032885;28;20045;-81
2022/09/06 02:00:56;;;;;;;7.03;6.32;;;;;;;16.65;100.00;100348.50;5048831;28;20052;-81
2022/09/06 02:03:22;;;;;;;6.50;5.85;;;;;;;16.65;100.00;100343.66;5049031;28;20041;-81
2022/09/06 02:05:53;;;;;;;6.85;6.15;;;;;;;16.44;100.00;100339.03;5049737;28;20094;-81
2022/09/06 02:08:27;;;;;;;6.75;6.05;;;;;;;16.38;100.00;100340.88;5032259;28;20033;-81
2022/09/06 02:10:59;;;;;;;6.45;5.60;;;;;;;16.43;100.00;100347.88;5046004;28;20055;-81
2022/09/06 02:13:28;;;;;;;6.90;6.20;;;;;;;16.36;100.00;100332.19;5049307;28;20053;-81
2022/09/06 02:16:15;;;;;;;6.47;5.78;;;;;;;16.33;100.00;100338.75;5048970;28;20371;-81
2022/09/06 02:18:57;;;;;;;6.63;5.90;;;;;;;16.32;100.00;100340.75;5048828;28;20090;-81
2022/09/06 02:21:27;;;;;;;6.63;5.97;;;;;;;16.27;100.00;100344.19;5028646;28;20041;-81
2022/09/06 02:23:55;;;;;;;8.77;6.32;;;;;;;16.26;100.00;100339.81;5014686;28;20056;-81
2022/09/06 02:26:26;;;;;;;7.60;6.80;;;;;;;16.21;100.00;100325.69;5026155;28;20052;-81
2022/09/06 02:28:51;;;;;;;8.27;6.80;;;;;;;16.28;100.00;100330.97;5029953;28;20040;-81
2022/09/06 02:31:24;;;;;;;7.35;6.65;;;;;;;16.30;100.00;100322.84;5015941;28;20514;-81
2022/09/06 02:33:50;;;;;;;8.68;7.55;;;;;;;16.30;100.00;100328.47;5031870;28;20041;-81
2022/09/06 02:36:16;;;;;;;7.53;6.72;;;;;;;16.20;100.00;100315.75;5050411;28;20033;-81
2022/09/06 02:38:43;;;;;;;7.20;6.50;;;;;;;16.31;100.00;100322.41;5030173;28;20584;-81
2022/09/06 02:41:08;;;;;;;9.07;6.60;;;;;;;16.25;100.00;100320.72;5043723;28;20065;-81
2022/09/06 02:43:34;;;;;;;6.63;6.03;;;;;;;16.31;100.00;100324.41;5026668;28;20076;-81
2022/09/06 02:45:59;;;;;;;6.65;5.95;;;;;;;16.28;100.00;100328.16;5047006;28;20040;-81
2022/09/06 02:48:25;;;;;;;8.63;6.78;;;;;;;16.27;100.00;100324.59;5050210;28;20387;-81
2022/09/06 02:50:50;;;;;;;7.68;6.97;;;;;;;16.16;100.00;100313.09;5042000;28;20044;-81
2022/09/06 02:53:16;;;;;;;9.20;7.05;;;;;;;16.21;100.00;100320.88;5032788;28;20455;-81
2022/09/06 02:55:41;;;;;;;7.30;6.60;;;;;;;16.19;100.00;100311.38;5044409;28;20041;-81
2022/09/06 02:58:09;;;;;;;6.43;5.82;;;;;;;16.19;100.00;100316.97;5046931;28;20070;-81
2022/09/06 03:00:35;;;;;;;6.97;6.30;;;;;;;16.17;100.00;100309.06;5047233;28;20048;-81
2022/09/06 03:03:00;;;;;;;7.35;6.55;;;;;;;16.11;100.00;100307.34;5028257;28;20124;-81
2022/09/06 03:05:27;;;;;;;7.20;6.50;;;;;;;16.03;100.00;100308.91;5050394;28;20644;-81
2022/09/06 03:07:53;;;;;;;7.15;6.45;;;;;;;16.08;100.00;100311.09;5048805;28;20045;-81
2022/09/06 03:10:19;;;;;;;8.07;6.90;;;;;;;16.03;100.00;100306.91;5049555;28;20521;-81
2022/09/06 03:12:45;;;;;;;7.20;6.50;;;;;;;16.01;100.00;100309.41;5045266;28;20414;-81
2022/09/06 03:15:12;;;;;;;7.22;6.43;;;;;;;16.03;100.00;100315.28;5030163;28;20095;-81
2022/09/06 03:17:38;;;;;;;6.88;5.97;;;;;;;16.04;100.00;100310.47;5048859;28;20133;-81
2022/09/06 03:20:05;;;;;;;6.65;6.03;;;;;;;16.07;100.00;100315.91;5037017;28;20083;-81
2022/09/06 03:22:31;;;;;;;6.43;5.82;;;;;;;16.10;100.00;100314.97;5048667;28;20033;-81
2022/09/06 03:24:56;;;;;;;6.75;6.15;;;;;;;16.10;100.00;100311.38;5046651;28;20049;-80
2022/09/06 03:27:22;;;;;;;7.03;6.22;;;;;;;16.08;100.00;100305.50;5041638;28;20072;-81
2022/09/06 03:29:48;;;;;;;7.65;6.95;;;;;;;16.06;100.00;100296.78;5022986;28;20049;-80
2022/09/06 03:32:13;;;;;;;7.57;6.88;;;;;;;16.13;100.00;100302.06;5047093;28;20056;-81
2022/09/06 03:34:39;;;;;;;7.03;6.32;;;;;;;16.15;100.00;100300.34;5047972;28;20045;-81
2022/09/06 03:37:04;;;;;;;7.47;6.78;;;;;;;16.13;100.00;100304.88;5049275;28;20577;-81
2022/09/06 03:39:30;;;;;;;7.72;7.03;;;;;;;16.16;100.00;100306.72;5031282;28;20148;-81
2022/09/06 03:41:55;;;;;;;8.15;7.07;;;;;;;16.14;100.00;100309.19;5046897;28;20041;-82
2022/09/06 03:44:21;;;;;;;7.95;7.20;;;;;;;16.12;100.00;100306.88;5049751;28;20048;-81
2022/09/06 03:46:46;;;;;;;7.50;6.90;;;;;;;16.17;100.00;100319.47;5029949;28;20049;-81
2022/09/06 03:49:12;;;;;;;7.50;6.60;;;;;;;16.23;100.00;100317.59;5046969;28;20143;-81
2022/09/06 03:51:37;;;;;;;7.82;7.03;;;;;;;16.22;100.00;100307.63;5048427;28;20517;-81
2022/09/06 03:54:03;;;;;;;7.28;6.68;;;;;;;16.27;100.00;100318.22;5025191;28;20071;-82
2022/09/06 03:56:29;;;;;;;11.15;7.53;;;;;;;16.16;100.00;100306.72;5039633;28;20095;-81
2022/09/06 03:58:54;;;;;;;7.32;6.55;;;;;;;16.13;100.00;100302.06;5045544;28;20456;-81
2022/09/06 04:01:20;;;;;;;8.15;7.35;;;;;;;16.18;100.00;100312.63;5048586;28;20124;-81
2022/09/06 04:03:45;;;;;;;7.97;7.18;;;;;;;16.18;100.00;100315.41;5048590;28;20060;-81
2022/09/06 04:06:11;;;;;;;8.30;7.55;;;;;;;16.18;100.00;100310.59;5029295;28;20448;-81
2022/09/06 04:08:37;;;;;;;9.18;7.50;;;;;;;16.19;100.00;100316.97;5041497;28;20699;-82
2022/09/06 04:11:03;;;;;;;8.45;7.65;;;;;;;16.07;100.00;100299.13;5029707;28;20036;-82
2022/09/06 04:13:30;;;;;;;8.60;7.80;;;;;;;16.07;100.00;100309.53;5036043;28;20543;-81
2022/09/06 04:15:56;;;;;;;8.90;8.00;;;;;;;16.08;100.00;100311.88;5051686;28;20119;-82
2022/09/06 04:18:22;;;;;;;9.05;7.70;;;;;;;16.02;100.00;100304.56;5015780;28;20115;-82
2022/09/06 04:20:48;;;;;;;8.73;7.20;;;;;;;15.98;100.00;100306.72;5045458;28;20033;-81
2022/09/06 04:23:15;;;;;;;7.45;6.75;;;;;;;16.01;100.00;100305.81;5044574;28;20039;-82
2022/09/06 04:25:40;;;;;;;7.63;6.45;;;;;;;16.02;100.00;100307.34;5043784;28;20085;-82
2022/09/06 04:28:05;;;;;;;8.00;7.28;;;;;;;16.10;100.00;100308.59;5044040;28;20064;-82
2022/09/06 04:30:31;;;;;;;7.72;7.03;;;;;;;16.10;100.00;100309.38;5049254;28;20103;-81
2022/09/06 04:32:56;;;;;;;7.95;7.20;;;;;;;16.12;100.00;100301.28;5025250;28;20629;-82
2022/09/06 04:35:22;;;;;;;10.40;9.40;;;;;;;16.13;100.00;100307.66;5022513;28;20040;-82
2022/09/06 04:37:47;;;;;;;10.90;9.93;;;;;;;16.10;100.00;100297.41;5043055;28;20060;-81
2022/09/06 04:40:13;;;;;;;11.20;10.02;;;;;;;16.10;100.00;100303.78;5042292;28;20049;-82
2022/09/06 04:42:39;;;;;;;10.63;9.73;;;;;;;16.09;100.00;100305.03;5041590;28;20041;-82
2022/09/06 04:45:05;;;;;;;10.15;9.15;;;;;;;16.10;100.00;100291.78;5041745;28;20069;-82
2022/09/06 04:47:30;;;;;;;10.80;9.70;;;;;;;15.99;100.00;100285.91;5043145;28;20075;-82
2022/09/06 04:49:56;;;;;;;11.25;10.25;;;;;;;16.21;100.00;100318.09;5042330;28;20041;-82
2022/09/06 04:52:21;;;;;;;11.05;10.05;;;;;;;16.18;100.00;100310.59;5038855;28;20056;-82
2022/09/06 04:54:47;;;;;;;11.88;10.73;;;;;;;16.31;100.00;100318.81;5045748;28;20122;-81
2022/09/06 04:57:13;;;;;;;12.73;11.63;;;;;;;16.33;100.00;100322.72;5042333;28;20045;-82
2022/09/06 04:59:38;;;;;;;13.77;12.48;;;;;;;16.27;100.00;100319.00;5009738;28;20413;-82
2022/09/06 05:02:04;;;;;;;13.77;12.48;;;;;;;16.41;100.00;100331.56;5041481;28;20044;-80
2022/09/06 05:04:29;;;;;;;14.02;12.73;;;;;;;16.53;100.00;100318.63;5047336;28;20049;-80
2022/09/06 05:07:03;;;;;;;14.20;9.52;;;;;;;16.54;100.00;100320.94;5035110;28;20120;-80
2022/09/06 05:09:29;;;;;;;10.95;7.85;;;;;;;16.55;100.00;100319.69;5040414;28;20034;-80
2022/09/06 05:11:55;;;;;;;10.75;8.02;;;;;;;16.68;100.00;100330.75;5041929;28;20776;-80
2022/09/06 05:14:20;;;;;;;8.15;7.10;;;;;;;16.68;100.00;100330.75;5024434;28;20094;-80
2022/09/06 05:16:46;;;;;;;10.05;7.28;;;;;;;16.70;100.00;100331.06;5033038;28;20040;-80
2022/09/06 05:19:11;;;;;;;13.68;7.60;;;;;;;16.75;100.00;100319.97;5043881;28;20048;-80
2022/09/06 05:21:37;;;;;;;7.65;6.93;;;;;;;16.78;100.00;100321.81;5045617;28;20041;-81
2022/09/06 05:24:03;;;;;;;11.35;7.50;;;;;;;16.77;100.00;100320.28;5038054;28;20354;-80
2022/09/06 05:26:28;;;;;;;9.32;6.72;;;;;;;16.88;100.00;100321.78;5023599;28;20041;-80
2022/09/06 05:28:54;;;;;;;9.05;6.63;;;;;;;16.89;100.00;100312.13;5037907;28;20509;-81
2022/09/06 05:31:30;;;;;;;10.38;7.40;;;;;;;16.94;100.00;100317.09;5037296;28;20033;-82
2022/09/06 05:33:56;;;;;;;11.07;8.13;;;;;;;16.89;100.00;100310.13;5026567;28;20501;-82
2022/09/06 05:36:23;;;;;;;8.75;7.53;;;;;;;16.89;100.00;100309.34;5030813;28;20048;-82
2022/09/06 05:38:52;;;;;;;11.52;9.18;;;;;;;16.85;100.00;100322.75;5052320;28;20044;-82
2022/09/06 05:41:18;;;;;;;12.00;10.80;;;;;;;16.89;100.00;100328.94;5032506;28;20033;-81
2022/09/06 05:43:44;;;;;;;14.40;13.10;;;;;;;16.85;100.00;100329.13;5032795;28;20056;-82
2022/09/06 05:46:10;;;;;;;13.45;12.25;;;;;;;16.93;100.00;100340.75;5033047;28;20045;-81
2022/09/06 05:48:35;;;;;;;15.02;13.55;;;;;;;16.92;100.00;100333.59;5032657;28;20458;-81
2022/09/06 05:51:03;;;;;;;14.77;13.48;;;;;;;16.95;100.00;100335.44;5032151;28;20041;-82
2022/09/06 05:53:40;;;;;;;15.32;14.02;;;;;;;16.89;100.00;100332.53;5033154;28;20179;-80
2022/09/06 05:56:06;;;;;;;16.85;14.25;;;;;;;16.89;100.00;100329.72;5033306;28;20041;-80
2022/09/06 05:58:32;;;;;;;15.13;13.57;;;;;;;16.95;100.00;100339.03;5004089;28;20037;-80
2022/09/06 06:01:13;;;;;;;16.27;14.48;;;;;;;16.92;100.00;100328.78;5034586;28;20528;-80
2022/09/06 06:03:38;;;;;;;16.90;15.23;;;;;;;16.96;100.00;100340.59;5047273;28;20045;-80
2022/09/06 06:06:04;;;;;;;14.38;12.88;;;;;;;17.04;100.00;100315.81;5051187;28;20552;-80
2022/09/06 06:08:30;;;;;;;15.60;14.07;;;;;;;17.16;100.00;100331.63;5037947;28;20037;-80
2022/09/06 06:10:59;;;;;;;15.40;13.70;;;;;;;17.28;100.00;100313.81;5020841;28;20502;-80
2022/09/06 06:13:28;;;;;;;15.23;13.82;;;;;;;17.39;100.00;100328.06;5030171;28;20045;-80
2022/09/06 06:15:55;;;;;;;13.85;12.52;;;;;;;17.39;100.00;100322.44;5013078;28;20421;-80
2022/09/06 06:18:20;;;;;;;15.85;14.25;;;;;;;17.51;100.00;100327.03;5042277;28;20601;-80
2022/09/06 06:20:46;;;;;;;14.07;12.77;;;;;;;17.57;100.00;100322.38;5051279;28;20172;-79
2022/09/06 06:23:13;;;;;;;15.35;13.82;;;;;;;17.64;100.00;100316.38;5050989;28;20057;-80
2022/09/06 06:25:39;;;;;;;16.27;14.68;;;;;;;17.75;100.00;100326.31;5034344;28;20048;-80
2022/09/06 06:28:04;;;;;;;15.75;14.25;;;;;;;17.91;100.00;100311.81;5049909;28;20037;-81
2022/09/06 06:30:30;;;;;;;14.98;13.52;;;;;;;18.18;100.00;100311.56;5052288;28;20037;-81
2022/09/06 06:32:57;;;;;;;15.32;13.93;;;;;;;18.49;100.00;100302.66;5051211;28;20371;-81
2022/09/06 06:35:23;;;;;;;16.98;13.90;;;;;;;18.80;100.00;100310.63;5051786;28;20419;-81
2022/09/06 06:37:49;;;;;;;14.90;13.40;;;;;;;19.00;100.00;100300.22;5051108;28;20620;-81
2022/09/06 06:40:14;;;;;;;13.30;11.93;;;;;;;19.38;100.00;100304.81;5050406;28;20119;-81
2022/09/06 06:42:40;;;;;;;11.82;10.73;;;;;;;19.70;100.00;100302.16;5051725;28;20409;-81
2022/09/06 06:45:06;;;;;;;12.73;11.40;;;;;;;20.02;100.00;100309.44;5049748;28;20053;-81
2022/09/06 06:47:32;;;;;;;13.52;12.32;;;;;;;20.23;100.00;100307.34;5051561;28;20490;-81
2022/09/06 06:49:57;;;;;;;13.27;11.60;;;;;;;20.55;100.00;100308.97;5050341;28;20048;-82
2022/09/06 06:52:23;;;;;;;10.68;9.68;;;;;;;20.67;100.00;100312.66;5051524;28;20049;-81
2022/09/06 06:54:48;;;;;;;10.48;9.45;;;;;;;20.57;98.77;100308.47;5050344;28;20051;-82
2022/09/06 06:57:14;;;;;;;10.57;9.55;;;;;;;20.61;97.62;100318.25;5051255;28;20079;-81
2022/09/06 06:59:40;;;;;;;10.90;9.13;;;;;;;20.59;99.71;100311.56;5032828;28;20072;-81
2022/09/06 07:02:05;;;;;;;9.45;8.55;;;;;;;20.57;97.01;100316.94;5037796;28;20414;-81
2022/09/06 07:04:31;;;;;;;10.80;8.95;;;;;;;20.89;96.77;100313.63;5051643;28;20413;-81
2022/09/06 07:06:57;;;;;;;10.68;9.63;;;;;;;20.80;94.86;100324.28;5033533;28;20215;-82
2022/09/06 07:09:23;;;;;;;12.07;9.55;;;;;;;20.89;95.79;100318.47;5049199;28;20033;-81
2022/09/06 07:11:48;;;;;;;9.52;8.63;;;;;;;21.21;93.79;100328.47;5032779;28;20041;-80
2022/09/06 07:14:17;;;;;;;10.38;9.45;;;;;;;21.49;93.38;100336.31;5049833;28;20049;-84
2022/09/06 07:16:43;;;;;;;9.93;9.07;;;;;;;21.71;91.34;100342.09;5028142;28;20049;-81
2022/09/06 07:19:09;;;;;;;11.05;8.70;;;;;;;22.03;91.97;100340.69;5030631;28;20483;-81
2022/09/06 07:21:34;;;;;;;13.43;9.20;;;;;;;22.49;88.77;100342.31;5016672;28;20124;-81
2022/09/06 07:24:00;;;;;;;9.68;8.70;;;;;;;22.65;86.96;100333.84;5049064;28;20455;-81
2022/09/06 07:26:28;;;;;;;10.13;9.23;;;;;;;22.39;89.03;100332.53;5048055;28;20685;-81
2022/09/06 07:28:57;;;;;;;10.20;9.20;;;;;;;22.45;85.77;100333.31;5029701;28;20077;-81
2022/09/06 07:31:23;;;;;;;10.68;9.63;;;;;;;22.41;85.77;100332.78;5049271;28;20526;-81
2022/09/06 07:33:48;;;;;;;9.55;8.65;;;;;;;22.60;85.66;100339.50;5030523;28;20063;-81
2022/09/06 07:36:14;;;;;;;10.55;8.68;;;;;;;22.95;85.03;100328.47;5048988;28;20421;-81
2022/09/06 07:38:39;;;;;;;10.30;9.30;;;;;;;22.94;83.75;100332.59;5048290;28;20048;-81
2022/09/06 07:41:08;;;;;;;9.65;8.75;;;;;;;23.00;84.95;100324.88;5031003;28;20112;-79
2022/09/06 07:43:34;;;;;;;10.48;9.57;;;;;;;23.06;85.17;100334.13;5050724;28;20074;-79
2022/09/06 07:46:01;;;;;;;10.43;9.52;;;;;;;23.07;86.53;100332.84;5055323;28;20081;-79
2022/09/06 07:48:28;;;;;;;11.13;9.95;;;;;;;23.32;86.10;100330.22;5050676;28;20037;-79
2022/09/06 07:50:54;;;;;;;9.73;8.80;;;;;;;23.46;87.41;100326.31;5055345;28;20099;-79
2022/09/06 07:53:19;;;;;;;11.02;9.82;;;;;;;23.61;86.05;100332.47;5053623;28;20045;-79
2022/09/06 07:55:45;;;;;;;10.75;9.75;;;;;;;23.52;84.79;100329.94;5054863;28;20037;-79
2022/09/06 07:58:10;;;;;;;10.48;9.50;;;;;;;23.47;85.46;100334.31;5052778;28;20386;-79
2022/09/06 08:00:37;;;;;;;10.55;9.27;;;;;;;23.81;85.24;100332.13;5053060;28;20037;-79
2022/09/06 08:03:03;;;;;;;9.95;8.95;;;;;;;23.73;83.29;100327.53;5053813;28;20064;-79
2022/09/06 08:05:28;;;;;;;8.85;7.97;;;;;;;24.13;80.82;100338.94;5036960;28;20081;-79
2022/09/06 08:07:54;;;;;;;8.95;8.02;;;;;;;24.32;79.07;100333.44;5054237;28;20033;-79
2022/09/06 08:10:19;;;;;;;8.30;7.60;;;;;;;24.27;77.04;100328.56;5052142;28;20079;-79
2022/09/06 08:12:45;;;;;;;8.05;7.35;;;;;;;24.30;76.11;100340.94;5018708;28;20044;-79
2022/09/06 08:15:10;;;;;;;8.05;7.30;;;;;;;24.29;76.25;100323.16;5054520;28;20556;-79
2022/09/06 08:17:36;;;;;;;8.10;7.43;;;;;;;24.52;76.65;100323.75;5036095;28;20038;-79
2022/09/06 08:20:03;;;;;;;8.15;6.65;;;;;;;24.67;76.56;100320.56;5052458;28;20494;-79
2022/09/06 08:22:32;;;;;;;8.02;6.80;;;;;;;24.56;74.42;100324.22;5054173;28;20094;-79
2022/09/06 08:24:58;;;;;;;7.88;6.47;;;;;;;24.59;74.44;100312.59;5035738;28;20045;-79
2022/09/06 08:27:24;;;;;;;7.57;6.85;;;;;;;24.80;74.58;100321.44;5053921;28;20390;-79
2022/09/06 08:29:49;;;;;;;7.63;6.90;;;;;;;24.94;73.08;100328.84;5053946;28;20098;-80
2022/09/06 08:32:15;;;;;;;8.00;6.50;;;;;;;24.97;72.49;100318.50;5053233;28;20083;-79
2022/09/06 08:34:41;;;;;;;10.23;6.40;;;;;;;24.88;73.68;100305.41;5051457;28;20120;-79
2022/09/06 08:37:07;;;;;;;7.93;6.57;;;;;;;25.21;73.76;100320.59;5053606;28;20116;-79
2022/09/06 08:39:32;;;;;;;7.95;7.00;;;;;;;25.47;70.46;100315.91;5047945;28;20041;-79
2022/09/06 08:42:04;;;;;;;8.38;7.10;;;;;;;25.51;70.92;100315.63;5052435;28;20121;-79
2022/09/06 08:44:38;;;;;;;7.15;6.45;;;;;;;25.80;70.75;100311.91;5034714;28;20052;-79
2022/09/06 08:47:09;;;;;;;8.68;6.82;;;;;;;26.15;69.57;100302.41;5053899;28;20051;-78
2022/09/06 08:49:56;;;;;;;7.80;7.10;;;;;;;25.79;69.17;100310.38;5052770;28;20060;-77
2022/09/06 08:52:31;;;;;;;6.95;6.25;;;;;;;25.78;70.32;100320.22;5053668;28;20098;-80
2022/09/06 08:55:13;;;;;;;7.20;6.53;;;;;;;25.65;68.47;100303.06;5037720;28;20045;-78
2022/09/06 08:57:50;;;;;;;6.97;6.20;;;;;;;25.86;69.38;100306.16;5053659;28;20512;-78
2022/09/06 09:00:16;;;;;;;7.25;6.43;;;;;;;25.97;68.58;100292.56;5035328;28;20091;-78
2022/09/06 09:02:47;;;;;;;7.30;6.60;;;;;;;25.99;70.30;100301.31;5034359;28;20083;-78
2022/09/06 09:05:21;;;;;;;7.88;6.60;;;;;;;26.22;68.21;100298.19;5052203;28;20049;-78
2022/09/06 09:08:07;;;;;;;7.70;6.03;;;;;;;26.36;67.01;100309.09;5019029;28;20041;-78
2022/09/06 09:10:40;;;;;;;7.13;6.43;;;;;;;26.33;65.90;100295.16;5047852;28;20130;-78
2022/09/06 09:13:08;;;;;;;6.80;6.20;;;;;;;26.46;67.32;100300.91;5033472;28;20050;-78
2022/09/06 09:15:35;;;;;;;7.78;6.88;;;;;;;26.61;68.74;100294.75;5028366;28;20033;-78
2022/09/06 09:18:01;;;;;;;6.60;6.00;;;;;;;26.62;64.79;100294.19;5035753;28;20040;-78
2022/09/06 09:20:26;;;;;;;6.60;5.88;;;;;;;26.82;64.90;100292.81;5049703;28;20045;-78
2022/09/06 09:22:52;;;;;;;8.82;6.10;;;;;;;26.10;66.49;100291.88;5053241;28;20272;-78
2022/09/06 09:25:20;;;;;;;7.75;6.22;;;;;;;26.35;66.42;100284.81;5034444;28;20124;-78
2022/09/06 09:27:49;;;;;;;7.20;5.95;;;;;;;26.65;66.68;100283.81;5053180;28;20480;-78
2022/09/06 09:30:14;;;;;;;7.65;5.75;;;;;;;26.45;63.26;100277.38;5033474;28;20037;-78
2022/09/06 09:32:43;;;;;;;6.50;5.90;;;;;;;26.42;64.20;100274.84;5052472;28;20056;-78
2022/09/06 09:35:15;;;;;;;6.55;5.97;;;;;;;26.47;65.09;100273.25;5014949;28;20636;-78
2022/09/06 09:37:40;;;;;;;6.68;5.78;;;;;;;26.54;63.04;100261.22;5033217;28;20076;-78
2022/09/06 09:40:13;;;;;;;6.40;5.80;;;;;;;26.75;62.53;100265.75;5035927;28;20122;-78
2022/09/06 09:42:39;;;;;;;5.70;5.10;;;;;;;26.80;62.48;100256.38;5051437;28;20106;-78
2022/09/06 09:45:19;;;;;;;6.93;5.50;;;;;;;26.93;61.57;100254.88;5035038;28;20049;-78
2022/09/06 09:47:45;;;;;;;5.80;5.25;;;;;;;27.30;61.31;100252.56;5052142;28;20045;-79
2022/09/06 09:50:40;;;;;;;5.35;4.85;;;;;;;27.39;59.31;100259.91;5034831;28;20116;-78
2022/09/06 09:53:09;;;;;;;5.63;4.65;;;;;;;27.38;58.09;100263.31;5000760;28;20068;-79
2022/09/06 09:55:34;;;;;;;6.05;5.13;;;;;;;27.21;57.18;100235.94;5035144;28;20510;-79
2022/09/06 09:58:00;;;;;;;5.40;4.90;;;;;;;27.09;58.18;100245.25;5050876;28;20120;-79
2022/09/06 10:00:34;;;;;;;7.65;5.10;;;;;;;27.38;59.04;100238.44;5052277;28;20510;-79
2022/09/06 10:03:00;;;;;;;6.15;5.63;;;;;;;27.78;57.42;100239.19;5025826;28;20045;-79
2022/09/06 10:05:26;;;;;;;8.75;5.65;;;;;;;27.91;56.22;100241.97;5017610;28;20052;-79
2022/09/06 10:07:56;;;;;;;5.43;4.50;;;;;;;27.90;56.17;100246.16;5033763;28;20531;-79
2022/09/06 10:10:34;;;;;;;6.40;4.63;;;;;;;27.86;56.20;100244.97;5031475;28;20049;-79
2022/09/06 10:13:15;;;;;;;5.22;4.72;;;;;;;27.52;55.52;100240.00;5015593;28;20044;-80
2022/09/06 10:15:42;;;;;;;5.57;5.07;;;;;;;27.72;57.56;100235.69;5044458;28;20048;-79
2022/09/06 10:18:34;;;;;;;5.25;4.70;;;;;;;27.62;54.43;100229.66;5047613;28;20041;-79
2022/09/06 10:21:00;;;;;;;5.60;4.55;;;;;;;27.75;54.94;100235.34;5018201;28;20409;-79
2022/09/06 10:23:49;;;;;;;4.97;4.30;;;;;;;27.92;53.99;100225.63;5050933;28;20029;-80
2022/09/06 10:26:21;;;;;;;5.90;4.65;;;;;;;27.93;53.49;100218.63;5051654;28;20477;-78
2022/09/06 10:28:48;;;;;;;4.50;4.10;;;;;;;27.87;51.82;100212.28;5049943;28;20053;-78
2022/09/06 10:31:19;;;;;;;4.80;4.30;;;;;;;28.08;53.31;100218.78;5034634;28;20509;-79
2022/09/06 10:34:15;;;;;;;5.20;4.65;;;;;;;28.17;51.07;100218.34;5051008;28;20044;-79
2022/09/06 10:37:07;;;;;;;4.45;4.05;;;;;;;28.22;51.52;100203.19;5051722;28;20130;-80
2022/09/06 10:39:49;;;;;;;6.35;4.50;;;;;;;28.13;52.92;100217.91;5024521;28;20044;-79
2022/09/06 10:42:29;;;;;;;4.90;4.20;;;;;;;28.03;50.35;100213.97;5051229;28;20468;-80
2022/09/06 10:45:16;;;;;;;5.97;4.57;;;;;;;27.89;52.56;100215.34;5051653;28;20041;-79
2022/09/06 10:47:54;;;;;;;4.25;3.85;;;;;;;27.73;51.00;100209.47;5051238;28;20052;-79
2022/09/06 10:50:21;;;;;;;4.78;4.25;;;;;;;27.34;51.79;100209.50;5050610;28;20049;-79
2022/09/06 10:52:47;;;;;;;8.13;4.60;;;;;;;27.66;50.38;100207.28;5050695;28;20056;-79
2022/09/06 10:55:16;;;;;;;5.10;4.55;;;;;;;27.87;50.99;100206.56;5034170;28;20049;-79
2022/09/06 10:57:47;;;;;;;4.80;4.40;;;;;;;27.92;49.58;100203.59;5033526;28;20080;-79
2022/09/06 11:00:13;;;;;;;5.28;4.25;;;;;;;28.15;49.24;100203.84;5032397;28;20190;-79
2022/09/06 11:02:39;;;;;;;5.60;4.55;;;;;;;28.15;48.57;100206.69;5040958;28;20042;-79
2022/09/06 11:05:13;;;;;;;4.90;4.43;;;;;;;28.25;47.79;100210.63;5042550;28;20052;-79
2022/09/06 11:07:41;;;;;;;6.47;4.03;;;;;;;28.32;48.76;100192.03;5038971;28;20060;-79
2022/09/06 11:10:17;;;;;;;4.47;4.00;;;;;;;28.30;46.34;100203.25;5041325;28;20041;-79
2022/09/06 11:12:53;;;;;;;5.25;4.13;;;;;;;28.25;47.40;100185.72;5033208;28;20053;-80
2022/09/06 11:15:19;;;;;;;6.10;4.40;;;;;;;27.97;47.58;100194.16;5033222;28;20053;-79
2022/09/06 11:18:13;;;;;;;4.80;4.40;;;;;;;28.25;47.47;100179.25;5033149;28;20048;-79
2022/09/06 11:20:42;;;;;;;6.07;4.20;;;;;;;28.41;47.81;100169.47;5033414;28;20053;-79
2022/09/06 11:23:30;;;;;;;6.50;4.60;;;;;;;28.83;46.76;100172.28;5050493;28;20041;-79
2022/09/06 11:26:05;;;;;;;8.38;4.22;;;;;;;28.69;47.76;100171.63;5010412;28;20517;-79
2022/09/06 11:28:36;;;;;;;4.80;4.40;;;;;;;28.73;47.94;100169.19;5040514;28;20113;-78